createdAt,value
2019-03-19T00:02:05.347Z,98.50
2019-03-19T00:04:32.859Z,98.50
2019-03-19T00:07:00.553Z,98.50
2019-03-19T00:09:27.852Z,98.50
2019-03-19T00:11:57.733Z,98.50
2019-03-19T00:14:24.238Z,98.50
2019-03-19T00:16:51.696Z,98.50
2019-03-19T00:19:19.266Z,98.50
2019-03-19T00:21:47.829Z,98.50
2019-03-19T00:24:15.647Z,98.50
2019-03-19T00:26:43.105Z,98.50
2019-03-19T00:29:12.031Z,98.50
2019-03-19T00:31:40.308Z,98.50
2019-03-19T00:34:09.974Z,98.50
2019-03-19T00:36:39.479Z,98.50
2019-03-19T00:39:07.673Z,98.50
2019-03-19T00:41:36.948Z,98.50
2019-03-19T00:44:04.822Z,98.50
2019-03-19T00:46:33.294Z,98.50
2019-03-19T00:49:01.286Z,98.50
2019-03-19T00:51:29.165Z,98.50
2019-03-19T00:53:57.076Z,98.50
2019-03-19T00:56:26.396Z,98.50
2019-03-19T00:58:54.686Z,98.50
2019-03-19T01:01:22.756Z,98.50
2019-03-19T01:03:50.194Z,98.50
2019-03-19T01:06:18.607Z,98.50
2019-03-19T01:08:45.992Z,98.50
2019-03-19T01:11:13.373Z,98.50
2019-03-19T01:13:41.093Z,98.50
2019-03-19T01:16:08.965Z,98.50
2019-03-19T01:18:37.520Z,98.50
2019-03-19T01:21:06.404Z,98.50
2019-03-19T01:23:34.307Z,98.50
2019-03-19T01:26:01.696Z,98.50
2019-03-19T01:28:31.040Z,98.50
2019-03-19T01:30:59.747Z,98.50
2019-03-19T01:33:27.299Z,98.50
2019-03-19T01:35:58.945Z,98.50
2019-03-19T01:38:26.314Z,98.50
2019-03-19T01:40:53.748Z,98.50
2019-03-19T01:43:23.834Z,98.50
2019-03-19T01:45:51.975Z,98.50
2019-03-19T01:48:18.849Z,98.50
2019-03-19T01:50:45.642Z,98.50
2019-03-19T01:53:12.469Z,98.50
2019-03-19T01:55:39.246Z,98.50
2019-03-19T01:58:06.144Z,98.50
2019-03-19T02:00:32.969Z,98.50
2019-03-19T02:02:59.805Z,98.50
2019-03-19T02:05:26.620Z,98.50
2019-03-19T02:07:53.408Z,98.50
2019-03-19T02:10:20.236Z,98.50
2019-03-19T02:12:47.097Z,98.50
2019-03-19T02:15:17.357Z,98.50
2019-03-19T02:17:44.186Z,98.50
2019-03-19T02:20:17.323Z,98.50
2019-03-19T02:22:44.098Z,98.50
2019-03-19T02:25:11.028Z,98.50
2019-03-19T02:27:37.945Z,98.50
2019-03-19T02:30:07.732Z,98.50
2019-03-19T02:32:34.553Z,98.50
2019-03-19T02:35:01.401Z,98.50
2019-03-19T02:37:28.267Z,98.50
2019-03-19T02:39:55.086Z,98.50
2019-03-19T02:42:21.910Z,98.50
2019-03-19T02:44:48.710Z,98.50
2019-03-19T02:47:15.541Z,98.50
2019-03-19T02:49:42.364Z,98.50
2019-03-19T02:52:09.149Z,98.50
2019-03-19T02:54:35.965Z,98.50
2019-03-19T02:57:02.835Z,98.50
2019-03-19T02:59:29.623Z,98.50
2019-03-19T03:01:56.445Z,98.50
2019-03-19T03:04:23.269Z,98.50
2019-03-19T03:06:50.060Z,98.50
2019-03-19T03:09:16.879Z,98.50
2019-03-19T03:11:43.873Z,98.50
2019-03-19T03:14:10.733Z,98.50
2019-03-19T03:16:37.554Z,98.50
2019-03-19T03:19:04.354Z,98.50
2019-03-19T03:21:34.493Z,98.50
2019-03-19T03:23:59.769Z,98.50
2019-03-19T03:26:26.585Z,98.50
2019-03-19T03:28:53.405Z,98.50
2019-03-19T03:31:20.216Z,98.50
2019-03-19T03:33:47.074Z,98.50
2019-03-19T03:36:13.920Z,98.50
2019-03-19T03:38:40.753Z,98.50
2019-03-19T03:41:07.662Z,98.50
2019-03-19T03:43:34.450Z,98.50
2019-03-19T03:46:01.284Z,98.50
2019-03-19T03:48:28.069Z,98.50
2019-03-19T03:50:54.901Z,98.50
2019-03-19T03:53:21.686Z,98.50
2019-03-19T03:55:48.517Z,98.50
2019-03-19T03:58:15.345Z,98.50
2019-03-19T04:00:42.136Z,98.50
2019-03-19T04:03:08.954Z,98.50
2019-03-19T04:05:35.724Z,98.50
2019-03-19T04:08:02.563Z,98.50
2019-03-19T04:10:29.395Z,98.50
2019-03-19T04:12:56.161Z,98.50
2019-03-19T04:15:23.053Z,98.50
2019-03-19T04:17:49.968Z,98.50
2019-03-19T04:20:17.876Z,98.50
2019-03-19T04:22:44.773Z,98.50
2019-03-19T04:25:12.137Z,98.50
2019-03-19T04:27:40.693Z,98.50
2019-03-19T04:30:13.926Z,98.50
2019-03-19T04:32:40.767Z,98.50
2019-03-19T04:35:07.582Z,98.50
2019-03-19T04:37:34.366Z,98.50
2019-03-19T04:40:01.199Z,98.50
2019-03-19T04:42:28.020Z,98.50
2019-03-19T04:44:54.801Z,98.50
2019-03-19T04:47:21.616Z,98.50
2019-03-19T04:49:48.401Z,98.50
2019-03-19T04:52:15.259Z,98.50
2019-03-19T04:54:42.015Z,98.50
2019-03-19T04:57:08.842Z,98.50
2019-03-19T04:59:35.630Z,98.50
2019-03-19T05:02:02.454Z,98.50
2019-03-19T05:04:29.277Z,98.50
2019-03-19T05:06:56.061Z,98.50
2019-03-19T05:09:22.893Z,98.50
2019-03-19T05:11:49.697Z,98.50
2019-03-19T05:14:16.516Z,98.50
2019-03-19T05:16:43.341Z,98.50
2019-03-19T05:19:10.121Z,98.50
2019-03-19T05:21:36.949Z,98.50
2019-03-19T05:24:03.734Z,98.50
2019-03-19T05:26:30.581Z,98.50
2019-03-19T05:28:57.414Z,98.50
2019-03-19T05:31:24.206Z,98.50
2019-03-19T05:33:51.033Z,98.50
2019-03-19T05:36:18.349Z,98.50
2019-03-19T05:38:45.754Z,98.50
2019-03-19T05:41:12.756Z,98.50
2019-03-19T05:43:40.062Z,98.50
2019-03-19T05:46:06.923Z,98.50
2019-03-19T05:48:33.855Z,98.50
2019-03-19T05:51:00.802Z,98.50
2019-03-19T05:53:27.713Z,98.50
2019-03-19T05:55:54.647Z,98.50
2019-03-19T05:58:21.485Z,98.50
2019-03-19T06:00:48.421Z,98.50
2019-03-19T06:03:15.371Z,98.50
2019-03-19T06:05:42.266Z,98.50
2019-03-19T06:08:09.178Z,98.50
2019-03-19T06:10:36.083Z,98.50
2019-03-19T06:13:03.333Z,98.50
2019-03-19T06:15:30.289Z,98.50
2019-03-19T06:17:57.148Z,98.50
2019-03-19T06:20:24.054Z,98.50
2019-03-19T06:22:50.891Z,98.50
2019-03-19T06:25:17.710Z,98.50
2019-03-19T06:27:44.517Z,98.50
2019-03-19T06:30:16.965Z,98.50
2019-03-19T06:32:43.920Z,98.50
2019-03-19T06:35:11.652Z,98.50
2019-03-19T06:37:38.681Z,98.50
2019-03-19T06:40:09.181Z,98.50
2019-03-19T06:42:35.977Z,98.50
2019-03-19T06:45:04.805Z,98.50
2019-03-19T06:47:31.585Z,98.50
2019-03-19T06:49:58.997Z,98.50
2019-03-19T06:52:25.786Z,98.50
2019-03-19T06:54:52.602Z,98.40
2019-03-19T06:57:19.433Z,98.50
2019-03-19T06:59:46.242Z,98.20
2019-03-19T07:02:13.056Z,97.90
2019-03-19T07:04:40.122Z,97.80
2019-03-19T07:07:06.970Z,97.40
2019-03-19T07:09:33.887Z,96.70
2019-03-19T07:12:01.684Z,96.10
2019-03-19T07:14:28.725Z,95.80
2019-03-19T07:16:55.510Z,95.50
2019-03-19T07:19:22.330Z,94.30
2019-03-19T07:21:49.173Z,93.80
2019-03-19T07:24:16.029Z,93.60
2019-03-19T07:26:42.858Z,92.60
2019-03-19T07:29:09.689Z,90.90
2019-03-19T07:31:36.505Z,90.10
2019-03-19T07:34:03.294Z,89.20
2019-03-19T07:36:30.133Z,86.30
2019-03-19T07:38:57.016Z,86.80
2019-03-19T07:41:23.823Z,86.40
2019-03-19T07:43:50.631Z,86.50
2019-03-19T07:46:17.408Z,87.10
2019-03-19T07:48:44.197Z,87.40
2019-03-19T07:51:11.021Z,86.20
2019-03-19T07:53:37.861Z,86.20
2019-03-19T07:56:04.632Z,85.10
2019-03-19T07:58:44.303Z,84.70
2019-03-19T08:01:00.054Z,85.20
2019-03-19T08:03:26.877Z,85.50
2019-03-19T08:05:53.698Z,85.10
2019-03-19T08:08:20.477Z,83.90
2019-03-19T08:10:47.306Z,84.70
2019-03-19T08:13:14.088Z,84.90
2019-03-19T08:15:40.914Z,84.00
2019-03-19T08:18:07.689Z,83.40
2019-03-19T08:20:36.069Z,83.40
2019-03-19T08:23:02.998Z,84.40
2019-03-19T08:25:29.773Z,82.50
2019-03-19T08:27:56.593Z,84.10
2019-03-19T08:30:26.662Z,83.10
2019-03-19T08:32:53.472Z,84.40
2019-03-19T08:35:20.366Z,83.40
2019-03-19T08:37:47.185Z,84.50
2019-03-19T08:40:17.536Z,82.80
2019-03-19T08:42:44.352Z,85.10
2019-03-19T08:45:25.320Z,85.00
2019-03-19T08:47:52.142Z,84.70
2019-03-19T08:50:20.016Z,84.80
2019-03-19T08:52:46.838Z,85.70
2019-03-19T08:55:13.662Z,85.20
2019-03-19T08:57:40.452Z,86.30
2019-03-19T09:00:18.571Z,84.50
2019-03-19T09:02:45.363Z,83.10
2019-03-19T09:05:12.672Z,83.20
2019-03-19T09:07:39.503Z,85.00
2019-03-19T09:10:11.905Z,84.20
2019-03-19T09:12:38.726Z,83.40
2019-03-19T09:15:14.341Z,82.70
2019-03-19T09:17:41.161Z,82.10
2019-03-19T09:20:10.853Z,81.20
2019-03-19T09:22:38.379Z,82.00
2019-03-19T09:25:06.566Z,81.00
2019-03-19T09:27:33.391Z,80.70
2019-03-19T09:30:00.209Z,81.00
2019-03-19T09:32:27.096Z,79.70
2019-03-19T09:34:53.853Z,79.80
2019-03-19T09:37:20.637Z,81.80
2019-03-19T09:39:47.455Z,82.00
2019-03-19T09:42:14.250Z,81.00
2019-03-19T09:44:41.037Z,80.90
2019-03-19T09:47:07.867Z,80.10
2019-03-19T09:49:34.649Z,77.70
2019-03-19T09:52:01.457Z,77.40
2019-03-19T09:54:28.245Z,76.40
2019-03-19T09:56:55.056Z,75.70
2019-03-19T09:59:27.082Z,75.90
2019-03-19T10:01:50.460Z,76.20
2019-03-19T10:04:17.273Z,77.60
2019-03-19T10:06:44.070Z,80.40
2019-03-19T10:09:10.896Z,79.90
2019-03-19T10:11:37.713Z,79.70
2019-03-19T10:14:04.497Z,78.30
2019-03-19T10:16:31.328Z,78.00
2019-03-19T10:18:58.113Z,77.00
2019-03-19T10:21:25.873Z,76.50
2019-03-19T10:23:52.657Z,74.40
2019-03-19T10:26:19.503Z,73.50
2019-03-19T10:28:46.277Z,75.10
2019-03-19T10:31:13.133Z,75.20
2019-03-19T10:33:39.912Z,75.00
2019-03-19T10:36:06.797Z,75.50
2019-03-19T10:38:33.609Z,75.40
2019-03-19T10:41:00.715Z,78.30
2019-03-19T10:43:27.511Z,77.70
2019-03-19T10:45:54.300Z,79.50
2019-03-19T10:48:21.122Z,81.50
2019-03-19T10:50:48.488Z,80.40
2019-03-19T10:53:15.273Z,78.20
2019-03-19T10:55:42.087Z,77.30
2019-03-19T10:58:11.346Z,78.10
2019-03-19T11:00:37.510Z,76.40
2019-03-19T11:03:04.289Z,76.90
2019-03-19T11:05:31.074Z,77.70
2019-03-19T11:07:57.905Z,77.40
2019-03-19T11:10:24.717Z,73.70
2019-03-19T11:12:51.496Z,73.10
2019-03-19T11:15:19.417Z,72.60
2019-03-19T11:17:46.298Z,71.70
2019-03-19T11:20:15.319Z,68.00
2019-03-19T11:22:42.096Z,73.20
2019-03-19T11:25:11.513Z,71.00
2019-03-19T11:27:38.332Z,71.30
2019-03-19T11:30:14.273Z,68.80
2019-03-19T11:32:41.132Z,68.00
2019-03-19T11:35:09.116Z,65.90
2019-03-19T11:37:35.932Z,67.40
2019-03-19T11:40:05.934Z,65.90
2019-03-19T11:42:32.743Z,67.30
2019-03-19T11:44:59.630Z,67.90
2019-03-19T11:47:26.577Z,67.50
2019-03-19T11:49:53.519Z,62.20
2019-03-19T11:52:20.463Z,66.30
2019-03-19T11:54:47.408Z,70.30
2019-03-19T11:57:15.375Z,68.60
2019-03-19T11:59:42.319Z,69.40
2019-03-19T12:02:09.161Z,68.90
2019-03-19T12:04:36.106Z,70.80
2019-03-19T12:07:03.152Z,71.90
2019-03-19T12:09:30.097Z,73.30
2019-03-19T12:11:57.041Z,75.30
2019-03-19T12:14:24.088Z,77.40
2019-03-19T12:16:51.039Z,79.50
2019-03-19T12:19:17.976Z,78.60
2019-03-19T12:21:44.920Z,76.90
2019-03-19T12:24:11.866Z,76.90
2019-03-19T12:26:38.911Z,75.60
2019-03-19T12:29:05.856Z,78.10
2019-03-19T12:31:32.811Z,80.20
2019-03-19T12:33:59.747Z,77.40
2019-03-19T12:36:26.688Z,78.50
2019-03-19T12:38:53.633Z,77.90
2019-03-19T12:41:20.576Z,76.80
2019-03-19T12:43:47.419Z,77.40
2019-03-19T12:46:14.363Z,75.30
2019-03-19T12:48:41.307Z,74.90
2019-03-19T12:51:08.252Z,76.00
2019-03-19T12:53:35.197Z,74.60
2019-03-19T12:56:02.015Z,76.10
2019-03-19T12:58:28.852Z,73.30
2019-03-19T13:00:55.702Z,73.40
2019-03-19T13:03:22.557Z,73.20
2019-03-19T13:05:49.336Z,73.90
2019-03-19T13:08:16.166Z,71.10
2019-03-19T13:10:42.965Z,70.30
2019-03-19T13:13:09.774Z,71.30
2019-03-19T13:15:36.553Z,70.70
2019-03-19T13:18:03.583Z,69.80
2019-03-19T13:20:31.469Z,70.00
2019-03-19T13:22:58.250Z,68.50
2019-03-19T13:25:25.516Z,66.00
2019-03-19T13:27:52.301Z,65.40
2019-03-19T13:30:23.622Z,66.30
2019-03-19T13:32:50.449Z,67.40
2019-03-19T13:35:17.233Z,66.30
2019-03-19T13:37:44.063Z,65.80
2019-03-19T13:40:13.661Z,65.50
2019-03-19T13:42:40.489Z,63.10
2019-03-19T13:45:14.304Z,63.70
2019-03-19T13:47:41.138Z,65.00
2019-03-19T13:50:10.270Z,63.80
2019-03-19T13:52:37.061Z,63.40
2019-03-19T13:55:10.004Z,63.50
2019-03-19T13:57:36.792Z,64.20
2019-03-19T14:00:07.106Z,63.90
2019-03-19T14:02:33.896Z,66.00
2019-03-19T14:05:00.788Z,66.20
2019-03-19T14:07:27.660Z,67.20
2019-03-19T14:09:54.452Z,64.60
2019-03-19T14:12:21.285Z,64.00
2019-03-19T14:14:48.068Z,63.60
2019-03-19T14:17:14.905Z,63.20
2019-03-19T14:19:41.682Z,63.90
2019-03-19T14:22:08.505Z,63.30
2019-03-19T14:24:35.793Z,62.50
2019-03-19T14:27:02.650Z,64.00
2019-03-19T14:29:29.434Z,63.70
2019-03-19T14:31:56.220Z,65.10
2019-03-19T14:34:23.047Z,67.20
2019-03-19T14:36:49.879Z,66.80
2019-03-19T14:39:16.662Z,67.80
2019-03-19T14:41:45.554Z,68.50
2019-03-19T14:44:12.102Z,71.70
2019-03-19T14:46:38.929Z,70.70
2019-03-19T14:49:05.716Z,71.60
2019-03-19T14:51:32.543Z,72.20
2019-03-19T14:53:59.369Z,72.40
2019-03-19T14:56:26.166Z,71.40
2019-03-19T14:58:52.985Z,71.40
2019-03-19T15:01:19.961Z,68.90
2019-03-19T15:03:46.893Z,69.90
2019-03-19T15:06:13.718Z,70.70
2019-03-19T15:08:40.506Z,70.60
2019-03-19T15:11:07.338Z,70.10
2019-03-19T15:13:34.120Z,70.30
2019-03-19T15:16:00.950Z,70.90
2019-03-19T15:18:27.783Z,67.90
2019-03-19T15:20:54.570Z,68.90
2019-03-19T15:23:21.398Z,70.40
2019-03-19T15:25:48.178Z,70.90
2019-03-19T15:28:15.041Z,70.40
2019-03-19T15:30:41.842Z,71.70
2019-03-19T15:33:08.665Z,69.30
2019-03-19T15:35:35.470Z,67.90
2019-03-19T15:38:02.281Z,68.30
2019-03-19T15:40:29.076Z,67.50
2019-03-19T15:42:55.917Z,69.00
2019-03-19T15:45:28.710Z,70.00
2019-03-19T15:47:55.532Z,68.90
2019-03-19T15:50:22.374Z,68.10
2019-03-19T15:52:49.182Z,69.00
2019-03-19T15:55:16.006Z,68.70
2019-03-19T15:57:43.025Z,69.90
2019-03-19T16:00:14.558Z,71.60
2019-03-19T16:02:41.377Z,71.90
2019-03-19T16:05:10.066Z,72.70
2019-03-19T16:07:36.892Z,74.50
2019-03-19T16:10:06.180Z,75.70
2019-03-19T16:12:33.059Z,74.10
2019-03-19T16:14:59.824Z,74.90
2019-03-19T16:17:26.609Z,74.60
2019-03-19T16:19:53.436Z,74.90
2019-03-19T16:22:20.249Z,73.30
2019-03-19T16:24:47.085Z,72.10
2019-03-19T16:27:13.938Z,71.40
2019-03-19T16:29:40.777Z,71.20
2019-03-19T16:32:07.561Z,71.70
2019-03-19T16:34:34.390Z,71.80
2019-03-19T16:37:01.233Z,71.60
2019-03-19T16:39:28.021Z,71.70
2019-03-19T16:41:54.845Z,71.30
2019-03-19T16:44:21.632Z,72.30
2019-03-19T16:46:48.480Z,72.20
2019-03-19T16:49:15.293Z,71.50
2019-03-19T16:51:42.093Z,73.00
2019-03-19T16:54:08.929Z,72.30
2019-03-19T16:56:35.716Z,73.60
2019-03-19T16:59:02.545Z,74.60
2019-03-19T17:01:29.337Z,75.30
2019-03-19T17:03:56.157Z,75.60
2019-03-19T17:06:22.982Z,76.00
2019-03-19T17:08:49.773Z,76.90
2019-03-19T17:11:16.597Z,77.80
2019-03-19T17:13:43.385Z,78.20
2019-03-19T17:16:10.204Z,78.70
2019-03-19T17:18:36.997Z,79.20
2019-03-19T17:21:03.816Z,79.60
2019-03-19T17:23:31.550Z,80.00
2019-03-19T17:25:58.341Z,80.30
2019-03-19T17:28:25.249Z,80.50
2019-03-19T17:30:52.080Z,80.30
2019-03-19T17:33:18.868Z,80.20
2019-03-19T17:35:45.695Z,80.00
2019-03-19T17:38:12.582Z,80.10
2019-03-19T17:40:41.523Z,80.30
2019-03-19T17:43:08.044Z,79.90
2019-03-19T17:45:34.834Z,79.70
2019-03-19T17:48:01.660Z,79.70
2019-03-19T17:50:33.714Z,79.90
2019-03-19T17:53:00.536Z,80.00
2019-03-19T17:55:27.332Z,80.20
2019-03-19T17:57:54.260Z,80.20
2019-03-19T18:00:23.014Z,80.10
2019-03-19T18:02:49.881Z,80.30
2019-03-19T18:05:16.715Z,80.40
2019-03-19T18:07:46.289Z,80.10
2019-03-19T18:10:13.774Z,80.40
2019-03-19T18:12:40.762Z,80.70
2019-03-19T18:15:13.028Z,81.00
2019-03-19T18:17:39.824Z,81.10
2019-03-19T18:20:10.729Z,81.40
2019-03-19T18:22:37.518Z,81.70
2019-03-19T18:25:06.386Z,82.00
2019-03-19T18:27:33.175Z,82.40
2019-03-19T18:30:00.053Z,83.80
2019-03-19T18:32:35.118Z,83.60
2019-03-19T18:34:55.967Z,84.30
2019-03-19T18:37:22.764Z,84.60
2019-03-19T18:39:49.585Z,85.10
2019-03-19T18:42:16.377Z,85.20
2019-03-19T18:44:43.213Z,85.80
2019-03-19T18:47:12.235Z,86.10
2019-03-19T18:49:39.325Z,85.90
2019-03-19T18:52:06.282Z,85.80
2019-03-19T18:54:33.145Z,85.80
2019-03-19T18:57:00.041Z,85.40
2019-03-19T18:59:26.922Z,85.70
2019-03-19T19:01:53.762Z,85.80
2019-03-19T19:04:20.550Z,86.40
2019-03-19T19:06:47.465Z,86.40
2019-03-19T19:09:14.295Z,86.20
2019-03-19T19:11:41.097Z,86.10
2019-03-19T19:14:09.229Z,86.20
2019-03-19T19:16:36.005Z,86.50
2019-03-19T19:19:02.829Z,87.40
2019-03-19T19:21:29.649Z,87.70
2019-03-19T19:23:56.440Z,88.00
2019-03-19T19:26:23.325Z,88.40
2019-03-19T19:28:50.228Z,89.00
2019-03-19T19:31:17.083Z,89.00
2019-03-19T19:33:43.878Z,89.50
2019-03-19T19:36:10.911Z,90.00
2019-03-19T19:38:37.789Z,90.10
2019-03-19T19:41:05.097Z,89.70
2019-03-19T19:43:31.879Z,90.30
2019-03-19T19:45:58.810Z,89.90
2019-03-19T19:48:25.603Z,89.70
2019-03-19T19:50:52.390Z,89.70
2019-03-19T19:53:19.210Z,89.30
2019-03-19T19:55:45.989Z,89.90
2019-03-19T19:58:12.817Z,89.30
2019-03-19T20:00:39.646Z,88.90
2019-03-19T20:03:12.276Z,89.10
2019-03-19T20:05:35.340Z,89.50
2019-03-19T20:08:02.132Z,89.50
2019-03-19T20:10:28.946Z,89.00
2019-03-19T20:12:55.766Z,89.70
2019-03-19T20:15:23.085Z,89.80
2019-03-19T20:17:49.921Z,89.90
2019-03-19T20:20:19.250Z,90.20
2019-03-19T20:22:47.848Z,90.60
2019-03-19T20:25:14.661Z,90.70
2019-03-19T20:27:41.477Z,90.50
2019-03-19T20:30:13.721Z,90.70
2019-03-19T20:32:40.905Z,91.00
2019-03-19T20:35:09.496Z,91.20
2019-03-19T20:37:37.572Z,91.00
2019-03-19T20:40:07.501Z,90.60
2019-03-19T20:42:34.321Z,90.60
2019-03-19T20:45:01.191Z,90.40
2019-03-19T20:47:27.981Z,90.20
2019-03-19T20:49:54.805Z,90.20
2019-03-19T20:52:21.589Z,90.10
2019-03-19T20:54:48.411Z,90.10
2019-03-19T20:57:15.233Z,90.10
2019-03-19T20:59:42.020Z,90.40
2019-03-19T21:02:08.839Z,90.50
2019-03-19T21:04:35.618Z,91.20
2019-03-19T21:07:02.449Z,91.70
2019-03-19T21:09:29.230Z,91.50
2019-03-19T21:11:56.048Z,91.70
2019-03-19T21:14:22.835Z,91.60
2019-03-19T21:16:49.652Z,91.50
2019-03-19T21:19:16.447Z,91.60
2019-03-19T21:21:43.260Z,91.50
2019-03-19T21:24:10.041Z,91.60
2019-03-19T21:26:36.875Z,91.30
2019-03-19T21:29:03.792Z,91.20
2019-03-19T21:31:30.617Z,92.00
2019-03-19T21:33:57.446Z,92.70
2019-03-19T21:36:24.220Z,92.90
2019-03-19T21:38:51.049Z,92.60
2019-03-19T21:41:17.829Z,92.50
2019-03-19T21:43:44.648Z,92.20
2019-03-19T21:46:11.468Z,92.00
2019-03-19T21:48:38.267Z,91.50
2019-03-19T21:51:05.083Z,91.50
2019-03-19T21:53:31.877Z,91.60
2019-03-19T21:55:58.737Z,92.20
2019-03-19T21:58:25.565Z,92.20
2019-03-19T22:00:52.346Z,92.10
2019-03-19T22:03:19.165Z,92.60
2019-03-19T22:05:45.940Z,92.80
2019-03-19T22:08:12.828Z,93.00
2019-03-19T22:10:39.645Z,93.40
2019-03-19T22:13:06.433Z,94.30
2019-03-19T22:15:33.249Z,94.30
2019-03-19T22:18:00.114Z,94.20
2019-03-19T22:20:26.931Z,94.40
2019-03-19T22:22:53.718Z,94.10
2019-03-19T22:25:20.536Z,94.00
2019-03-19T22:27:47.321Z,93.70
2019-03-19T22:30:18.362Z,93.30
2019-03-19T22:32:45.176Z,93.00
2019-03-19T22:35:12.193Z,92.80
2019-03-19T22:37:38.974Z,92.60
2019-03-19T22:40:11.304Z,92.60
2019-03-19T22:42:38.088Z,92.50
2019-03-19T22:45:08.104Z,92.40
2019-03-19T22:47:34.889Z,92.50
2019-03-19T22:50:01.708Z,92.80
2019-03-19T22:52:28.509Z,93.30
2019-03-19T22:54:55.330Z,93.70
2019-03-19T22:57:23.099Z,93.90
2019-03-19T22:59:53.808Z,94.30
2019-03-19T23:02:21.474Z,94.80
2019-03-19T23:04:49.029Z,95.20
2019-03-19T23:07:16.593Z,95.30
2019-03-19T23:09:44.092Z,95.20
2019-03-19T23:12:12.534Z,94.80
2019-03-19T23:14:40.387Z,94.40
2019-03-19T23:17:07.816Z,94.80
2019-03-19T23:19:35.369Z,94.90
2019-03-19T23:22:05.126Z,95.00
2019-03-19T23:24:33.811Z,94.80
2019-03-19T23:27:04.067Z,94.80
2019-03-19T23:29:33.283Z,94.90
2019-03-19T23:32:00.945Z,94.90
2019-03-19T23:34:38.198Z,94.50
2019-03-19T23:37:00.512Z,94.30
2019-03-19T23:39:28.478Z,94.20
2019-03-19T23:41:56.048Z,94.00
2019-03-19T23:44:23.948Z,93.80
2019-03-19T23:46:57.594Z,93.00
2019-03-19T23:49:24.790Z,92.70
2019-03-19T23:51:54.040Z,93.70
2019-03-19T23:54:21.714Z,94.90
2019-03-19T23:56:49.580Z,94.80
2019-03-19T23:59:18.701Z,94.70
